Time;durP1;ratioP1;P1;durP2;ratioP2;P2;SDS_P1;SDS_P2;PMS_P1;PMS_P2;Temp;Humidity;BMP_temperature;BMP_pressure;BME280_temperature;BME280_humidity;BME280_pressure;Samples;Min_cycle;Max_cycle;Signal;HPM_P1;HPM_P2
2023/10/08 00:01:55;;;;;;;5.28;4.45;;;20.00;30.00;;;;;;20445;6777;294252;-76
2023/10/08 00:04:28;;;;;;;5.33;3.80;;;20.20;30.20;;;;;;20652;6777;119243;-76
2023/10/08 00:07:07;;;;;;;3.80;3.50;;;20.00;30.60;;;;;;20670;6762;120417;-76
2023/10/08 00:09:39;;;;;;;5.12;4.62;;;19.60;31.20;;;;;;20464;6762;284501;-76
2023/10/08 00:12:16;;;;;;;4.47;4.10;;;19.60;32.50;;;;;;20688;6765;119429;-76
2023/10/08 00:14:54;;;;;;;4.67;4.27;;;19.40;33.30;;;;;;20440;6780;307195;-75
2023/10/08 00:17:31;;;;;;;5.72;4.72;;;19.40;33.30;;;;;;20439;6780;316739;-76
2023/10/08 00:20:06;;;;;;;5.20;4.80;;;19.50;33.80;;;;;;20430;6765;318459;-78
2023/10/08 00:22:41;;;;;;;6.77;3.87;;;19.60;34.10;;;;;;20694;6765;117258;-76
2023/10/08 00:25:17;;;;;;;5.20;4.45;;;19.30;34.60;;;;;;20389;6795;298502;-76
2023/10/08 00:27:52;;;;;;;4.93;4.43;;;19.20;35.00;;;;;;20651;6780;117808;-76
2023/10/08 00:30:31;;;;;;;7.00;4.77;;;18.90;36.00;;;;;;20317;6795;323328;-77
2023/10/08 00:33:04;;;;;;;6.03;4.60;;;18.80;35.70;;;;;;20461;6763;348409;-75
2023/10/08 00:35:41;;;;;;;5.70;5.10;;;19.00;35.90;;;;;;20518;6762;307011;-76
2023/10/08 00:38:20;;;;;;;4.90;4.47;;;19.00;35.40;;;;;;20698;6762;117038;-76
2023/10/08 00:40:55;;;;;;;5.35;4.85;;;18.70;35.20;;;;;;20435;6748;313609;-76
2023/10/08 00:43:34;;;;;;;6.57;4.67;;;18.60;35.10;;;;;;20751;6747;117545;-76
2023/10/08 00:46:18;;;;;;;5.10;4.67;;;18.40;35.10;;;;;;20718;6763;117227;-76
2023/10/08 00:48:45;;;;;;;5.25;4.75;;;18.00;35.30;;;;;;20511;6763;307528;-76
2023/10/08 00:51:26;;;;;;;4.63;4.23;;;18.10;35.70;;;;;;20559;6763;119114;-76
2023/10/08 00:54:06;;;;;;;5.62;4.78;;;18.00;35.60;;;;;;20505;6763;284570;-77
2023/10/08 00:56:53;;;;;;;4.87;4.37;;;18.10;35.70;;;;;;20727;6763;120628;-76
2023/10/08 00:59:21;;;;;;;6.37;4.27;;;18.00;35.60;;;;;;20706;6765;119363;-76
2023/10/08 01:01:59;;;;;;;5.10;4.43;;;17.70;35.80;;;;;;20716;6762;117672;-76
2023/10/08 01:04:33;;;;;;;5.73;5.23;;;17.50;36.00;;;;;;20529;6758;306604;-76
2023/10/08 01:07:12;;;;;;;5.93;5.20;;;17.70;36.00;;;;;;20447;6774;294175;-76
2023/10/08 01:09:51;;;;;;;6.37;5.60;;;18.00;35.60;;;;;;20419;6774;346435;-76
2023/10/08 01:12:50;;;;;;;5.30;4.87;;;18.30;35.60;;;;;;20670;6767;121507;-76
2023/10/08 01:18:00;;;;;;;5.00;4.60;;;18.00;35.90;;;;;;20344;6820;117811;-76
2023/10/08 01:20:34;;;;;;;6.23;4.33;;;17.70;36.30;;;;;;20603;6760;122369;-76
2023/10/08 01:23:13;;;;;;;4.93;4.53;;;17.70;36.20;;;;;;20719;6748;116918;-76
2023/10/08 01:25:50;;;;;;;5.63;4.70;;;17.40;36.40;;;;;;20484;6765;277728;-76
2023/10/08 01:28:29;;;;;;;5.20;4.70;;;17.60;36.90;;;;;;20490;6766;282053;-76
2023/10/08 01:31:03;;;;;;;5.43;4.93;;;17.90;35.90;;;;;;20402;6748;289648;-76
2023/10/08 01:33:46;;;;;;;5.50;4.90;;;18.20;35.40;;;;;;20545;6748;315270;-76
2023/10/08 01:36:14;;;;;;;5.77;5.20;;;18.40;35.10;;;;;;20539;6748;322607;-76
2023/10/08 01:38:50;;;;;;;4.20;3.80;;;18.30;35.10;;;;;;20708;6762;117263;-76
2023/10/08 01:41:33;;;;;;;7.20;5.03;;;18.30;35.00;;;;;;20322;6762;279667;-76
2023/10/08 01:44:08;;;;;;;5.77;4.40;;;18.30;35.90;;;;;;20754;6748;117967;-76
2023/10/08 01:46:40;;;;;;;6.23;5.47;;;18.00;35.90;;;;;;20482;6762;307072;-76
2023/10/08 01:49:21;;;;;;;5.60;5.10;;;18.00;36.30;;;;;;20491;6762;277566;-76
2023/10/08 01:51:53;;;;;;;7.07;4.43;;;18.10;36.60;;;;;;20724;6763;117710;-76
2023/10/08 01:54:27;;;;;;;8.37;5.10;;;17.90;36.50;;;;;;20718;6763;118585;-76
2023/10/08 01:57:04;;;;;;;4.90;4.43;;;17.50;36.80;;;;;;20706;6756;117632;-76
2023/10/08 01:59:40;;;;;;;6.20;5.53;;;17.30;37.80;;;;;;20458;6763;338903;-76
2023/10/08 02:02:16;;;;;;;5.33;4.50;;;17.30;37.70;;;;;;20759;6748;117842;-76
2023/10/08 02:04:55;;;;;;;9.33;4.33;;;17.20;37.60;;;;;;20742;6748;117605;-76
2023/10/08 02:07:28;;;;;;;4.53;4.13;;;16.90;37.80;;;;;;20755;6747;122452;-76
2023/10/08 02:10:05;;;;;;;8.60;4.47;;;16.70;38.10;;;;;;20701;6748;117248;-77
2023/10/08 02:12:39;;;;;;;5.78;5.28;;;16.60;38.40;;;;;;20540;6748;316165;-76
2023/10/08 02:15:15;;;;;;;6.80;5.10;;;16.80;38.80;;;;;;20470;6765;277989;-76
2023/10/08 02:17:50;;;;;;;5.25;4.60;;;17.20;38.30;;;;;;20512;6762;310370;-76
2023/10/08 02:20:29;;;;;;;6.17;4.73;;;17.60;37.30;;;;;;20409;6762;305205;-76
2023/10/08 02:23:01;;;;;;;4.63;4.23;;;17.80;36.90;;;;;;20670;6762;117318;-76
2023/10/08 02:25:39;;;;;;;5.97;5.05;;;17.70;37.40;;;;;;20491;6762;280159;-76
2023/10/08 02:28:15;;;;;;;6.53;5.40;;;17.70;37.30;;;;;;20478;6819;295701;-76
2023/10/08 02:30:49;;;;;;;7.90;5.20;;;17.90;37.40;;;;;;20361;6765;309599;-76
2023/10/08 02:33:31;;;;;;;6.57;5.10;;;18.00;37.40;;;;;;20468;6765;278720;-76
2023/10/08 02:36:04;;;;;;;7.47;4.63;;;18.10;37.70;;;;;;20700;6762;119641;-76
2023/10/08 02:38:39;;;;;;;4.53;4.13;;;17.80;37.50;;;;;;20697;6762;117538;-76
2023/10/08 02:41:18;;;;;;;6.65;5.12;;;17.40;37.70;;;;;;20335;6762;279364;-76
2023/10/08 02:43:59;;;;;;;5.80;5.13;;;17.50;38.20;;;;;;20501;6763;278863;-76
2023/10/08 02:46:32;;;;;;;5.60;5.10;;;17.70;38.20;;;;;;20506;6765;282423;-76
2023/10/08 02:49:06;;;;;;;6.43;5.50;;;18.00;37.50;;;;;;20487;6762;288610;-76
2023/10/08 02:51:44;;;;;;;7.82;5.30;;;18.10;37.90;;;;;;20344;6763;310429;-76
2023/10/08 02:54:41;;;;;;;;;;;;;;;;;;;;;
2023/10/08 02:57:03;;;;;;;8.10;5.20;;;18.20;35.40;;;;;;20530;6811;276810;-77
2023/10/08 02:59:44;;;;;;;5.70;5.00;;;18.20;35.60;;;;;;20411;6775;308564;-76
2023/10/08 03:02:18;;;;;;;8.02;4.62;;;18.20;35.80;;;;;;20495;6765;306716;-77
2023/10/08 03:04:54;;;;;;;5.17;3.87;;;18.30;35.20;;;;;;20697;6765;117297;-77
2023/10/08 03:07:35;;;;;;;6.00;4.40;;;17.90;35.10;;;;;;20478;6767;346534;-78
2023/10/08 03:10:19;;;;;;;4.57;3.53;;;17.90;35.10;;;;;;20615;6777;117246;-77
2023/10/08 03:12:56;;;;;;;5.43;3.40;;;17.40;36.50;;;;;;20677;6777;117392;-76
2023/10/08 03:15:46;;;;;;;8.20;4.70;;;17.30;36.40;;;;;;20430;6773;307818;-77
2023/10/08 03:18:10;;;;;;;6.57;3.93;;;17.50;37.20;;;;;;20703;6773;117295;-75
2023/10/08 03:20:52;;;;;;;4.57;3.73;;;17.20;37.30;;;;;;20592;6773;117876;-76
2023/10/08 03:23:33;;;;;;;5.17;3.80;;;17.10;37.20;;;;;;20686;6776;118060;-75
2023/10/08 03:26:09;;;;;;;4.43;3.40;;;16.80;37.50;;;;;;20797;6740;117384;-76
2023/10/08 03:28:40;;;;;;;6.20;3.70;;;16.80;37.50;;;;;;20695;6765;117205;-76
2023/10/08 03:31:15;;;;;;;5.22;4.05;;;16.60;37.80;;;;;;20312;6781;280292;-76
2023/10/08 03:33:51;;;;;;;5.57;4.10;;;17.30;37.20;;;;;;20445;6778;309112;-76
2023/10/08 03:36:35;;;;;;;6.07;4.23;;;17.20;37.10;;;;;;20618;6788;117502;-76
2023/10/08 03:39:12;;;;;;;6.33;3.90;;;17.20;37.10;;;;;;20627;6793;118639;-76
2023/10/08 03:41:41;;;;;;;4.27;3.40;;;16.80;37.70;;;;;;20591;6757;117807;-76
2023/10/08 03:44:19;;;;;;;5.70;4.27;;;16.70;37.80;;;;;;20548;6749;283443;-75
2023/10/08 03:46:52;;;;;;;7.07;3.40;;;17.00;38.10;;;;;;20720;6761;120071;-76
2023/10/08 03:49:31;;;;;;;6.40;3.70;;;17.00;38.00;;;;;;20774;6746;117251;-75
2023/10/08 03:52:06;;;;;;;4.57;3.40;;;16.80;38.20;;;;;;20785;6746;117148;-75
2023/10/08 03:54:48;;;;;;;5.63;4.57;;;16.80;38.00;;;;;;20576;6746;276445;-79
2023/10/08 03:57:25;;;;;;;6.25;4.05;;;16.80;38.00;;;;;;20545;6746;306463;-76
2023/10/08 03:59:55;;;;;;;8.60;4.17;;;17.20;37.30;;;;;;20755;6746;117533;-76
2023/10/08 04:02:39;;;;;;;8.17;3.57;;;17.10;37.30;;;;;;20795;6746;118088;-75
2023/10/08 04:05:19;;;;;;;5.82;4.00;;;16.90;37.80;;;;;;20560;6746;313471;-76
2023/10/08 04:13:19;;;;;;;6.03;3.83;;;17.10;37.90;;;;;;20607;6801;120200;-76
2023/10/08 04:15:55;;;;;;;7.20;3.90;;;17.00;37.80;;;;;;20565;6746;312458;-76
2023/10/08 04:18:29;;;;;;;6.60;3.50;;;17.10;38.30;;;;;;20783;6746;118636;-76
2023/10/08 04:21:12;;;;;;;8.37;4.17;;;17.10;37.30;;;;;;20420;6746;303993;-76
2023/10/08 04:23:44;;;;;;;5.20;4.00;;;17.10;36.90;;;;;;20575;6746;276315;-77
2023/10/08 04:26:23;;;;;;;5.67;3.87;;;17.40;36.60;;;;;;20786;6746;119747;-76
2023/10/08 04:28:58;;;;;;;6.53;4.23;;;17.30;36.80;;;;;;20478;6763;277228;-76
2023/10/08 04:31:37;;;;;;;7.82;4.40;;;17.30;37.80;;;;;;20418;6746;308503;-76
2023/10/08 04:34:15;;;;;;;6.80;3.73;;;17.50;38.50;;;;;;20777;6746;117986;-76
2023/10/08 04:36:54;;;;;;;10.73;3.70;;;17.40;38.30;;;;;;20788;6745;117787;-76
2023/10/08 04:39:40;;;;;;;4.27;3.50;;;17.00;38.50;;;;;;20782;6746;117126;-76
2023/10/08 04:42:10;;;;;;;5.90;3.57;;;16.80;38.90;;;;;;20781;6746;117327;-76
2023/10/08 04:44:46;;;;;;;7.47;3.57;;;16.50;39.00;;;;;;20781;6746;117957;-76
2023/10/08 04:47:44;;;;;;;6.80;3.80;;;16.30;39.10;;;;;;20774;6746;123779;-76
2023/10/08 04:49:56;;;;;;;6.33;4.20;;;16.20;39.30;;;;;;20422;6800;317222;-76
2023/10/08 04:52:34;;;;;;;6.20;4.12;;;16.50;39.70;;;;;;20580;6746;335933;-76
2023/10/08 04:55:15;;;;;;;8.30;3.80;;;16.80;39.00;;;;;;20768;6746;117819;-76
2023/10/08 04:57:44;;;;;;;6.20;3.60;;;16.80;39.10;;;;;;20776;6746;116995;-77
2023/10/08 05:00:59;;;;;;;8.10;3.97;;;16.50;39.20;;;;;;20541;6746;69669;-73
2023/10/08 05:04:32;;;;;;;5.70;4.20;;;16.30;39.60;;;;;;20258;6828;307437;-70
2023/10/08 05:15:47;;;;;;;5.17;4.10;;;16.90;39.60;;;;;;20383;6824;121753;-74
2023/10/08 05:20:59;;;;;;;4.33;3.93;;;16.40;39.70;;;;;;20550;6777;120993;-72
2023/10/08 05:24:08;;;;;;;6.87;4.82;;;16.20;40.00;;;;;;20497;6764;306935;-75
2023/10/08 05:26:20;;;;;;;5.77;4.50;;;16.40;40.40;;;;;;20452;6823;315939;-73
2023/10/08 05:29:25;;;;;;;5.77;3.93;;;16.80;40.10;;;;;;20594;6833;117498;-76
2023/10/08 05:31:53;;;;;;;6.20;4.50;;;16.70;39.80;;;;;;20231;6892;310278;-75
2023/10/08 05:34:32;;;;;;;7.30;3.83;;;16.80;39.80;;;;;;20605;6799;122702;-76
2023/10/08 05:39:54;;;;;;;5.73;4.80;;;16.70;39.90;;;;;;20343;6832;287481;-75
2023/10/08 05:42:20;;;;;;;5.27;4.70;;;16.90;39.40;;;;;;20525;6758;306023;-73
2023/10/08 05:48:06;;;;;;;5.40;4.62;;;17.20;38.90;;;;;;20137;6818;308131;-75
2023/10/08 05:53:14;;;;;;;10.37;9.17;;;17.00;38.80;;;;;;20418;6815;121518;-76
2023/10/08 05:55:36;;;;;;;7.20;6.20;;;16.60;39.30;;;;;;20377;6815;342643;-76
2023/10/08 05:58:13;;;;;;;7.90;4.80;;;16.70;39.70;;;;;;20495;6758;289323;-74
2023/10/08 06:01:22;;;;;;;6.93;4.97;;;16.90;39.40;;;;;;20449;6747;278619;-74
2023/10/08 06:04:00;;;;;;;5.37;4.50;;;17.10;39.30;;;;;;20692;6814;117118;-76
2023/10/08 06:06:22;;;;;;;6.57;5.00;;;16.90;39.30;;;;;;20465;6811;315359;-73
2023/10/08 06:12:09;;;;;;;5.50;4.07;;;17.20;40.50;;;;;;19695;6923;119503;-76
2023/10/08 06:14:52;;;;;;;6.73;4.30;;;17.00;40.40;;;;;;20587;6795;118496;-75
2023/10/08 06:17:34;;;;;;;5.73;4.80;;;16.70;40.80;;;;;;20417;6774;319770;-77
2023/10/08 06:20:01;;;;;;;5.70;4.53;;;17.20;41.40;;;;;;20362;6777;307827;-75
2023/10/08 06:22:36;;;;;;;7.87;4.90;;;17.10;41.30;;;;;;20382;6795;308740;-75
2023/10/08 06:25:23;;;;;;;5.18;4.70;;;17.40;41.20;;;;;;20391;6780;337888;-78
2023/10/08 06:27:55;;;;;;;6.17;4.90;;;17.60;40.90;;;;;;20435;6780;308640;-75
2023/10/08 06:30:34;;;;;;;7.00;4.45;;;17.70;40.80;;;;;;20346;6780;320184;-75
2023/10/08 06:33:05;;;;;;;5.40;3.80;;;17.90;40.50;;;;;;20620;6780;124050;-75
2023/10/08 06:35:56;;;;;;;7.50;3.80;;;17.40;40.70;;;;;;20617;6783;117126;-75
2023/10/08 06:38:23;;;;;;;5.47;4.50;;;17.40;40.70;;;;;;20430;6773;285507;-75
2023/10/08 06:41:00;;;;;;;4.60;4.10;;;17.50;39.90;;;;;;20278;6788;317525;-73
2023/10/08 06:43:36;;;;;;;8.00;4.33;;;17.90;39.30;;;;;;20599;6788;120270;-73
2023/10/08 06:46:12;;;;;;;4.95;4.43;;;18.10;38.90;;;;;;20397;6788;277924;-73
2023/10/08 06:48:49;;;;;;;7.03;4.43;;;18.00;38.80;;;;;;20354;6806;288948;-72
2023/10/08 06:51:25;;;;;;;4.90;4.40;;;18.40;39.20;;;;;;20432;6806;122668;-74
2023/10/08 06:54:02;;;;;;;7.80;5.33;;;18.30;38.70;;;;;;20441;6776;308587;-78
2023/10/08 06:56:35;;;;;;;6.43;5.80;;;18.40;39.80;;;;;;20432;6778;306910;-74
2023/10/08 06:59:11;;;;;;;5.27;4.67;;;18.60;40.50;;;;;;20634;6778;118017;-76
2023/10/08 07:01:47;;;;;;;5.83;3.90;;;18.30;40.40;;;;;;20479;6834;118703;-74
2023/10/08 07:04:23;;;;;;;7.47;3.73;;;18.10;40.60;;;;;;20695;6770;117031;-75
2023/10/08 07:07:02;;;;;;;4.57;3.97;;;18.00;40.90;;;;;;20586;6769;145108;-75
2023/10/08 07:09:36;;;;;;;5.97;3.97;;;18.00;40.80;;;;;;20585;6758;117663;-73
2023/10/08 07:12:14;;;;;;;5.47;4.17;;;18.00;40.80;;;;;;20698;6765;118293;-74
2023/10/08 07:14:46;;;;;;;3.73;3.33;;;18.00;40.80;;;;;;20691;6767;120819;-73
2023/10/08 07:17:31;;;;;;;8.00;4.62;;;18.10;40.90;;;;;;20380;6763;315632;-73
2023/10/08 07:19:58;;;;;;;6.20;4.67;;;18.60;41.10;;;;;;20460;6760;279150;-75
2023/10/08 07:22:33;;;;;;;7.10;3.90;;;19.20;39.80;;;;;;20816;6765;117088;-73
2023/10/08 07:25:09;;;;;;;8.10;4.33;;;19.40;39.40;;;;;;20800;6748;117808;-78
2023/10/08 07:27:45;;;;;;;5.57;4.10;;;19.40;39.40;;;;;;20722;6758;116976;-74
2023/10/08 07:30:26;;;;;;;7.40;4.57;;;19.40;39.60;;;;;;20285;6778;298047;-75
2023/10/08 07:32:58;;;;;;;8.73;4.17;;;19.60;39.90;;;;;;20728;6743;117558;-75
2023/10/08 07:35:38;;;;;;;6.53;4.23;;;19.70;39.60;;;;;;20510;6754;287338;-74
2023/10/08 07:38:09;;;;;;;5.80;3.90;;;20.00;38.70;;;;;;20746;6754;119790;-74
2023/10/08 07:40:44;;;;;;;5.37;3.40;;;20.20;38.50;;;;;;20644;6744;122083;-75
2023/10/08 07:43:20;;;;;;;6.37;4.30;;;20.60;38.00;;;;;;20602;6745;279427;-77
2023/10/08 07:45:55;;;;;;;7.87;3.90;;;20.80;37.40;;;;;;20774;6742;118043;-75
2023/10/08 07:48:31;;;;;;;4.83;3.83;;;20.70;37.50;;;;;;20559;6742;276291;-74
2023/10/08 07:51:06;;;;;;;6.50;4.00;;;21.10;36.90;;;;;;20432;6742;306917;-75
2023/10/08 07:53:43;;;;;;;6.07;3.90;;;21.50;36.20;;;;;;20532;6759;336065;-74
2023/10/08 07:56:23;;;;;;;7.68;4.00;;;22.10;35.70;;;;;;20542;6761;314480;-74
2023/10/08 07:58:56;;;;;;;6.27;4.20;;;22.10;35.00;;;;;;20480;6762;296988;-74
2023/10/08 08:01:33;;;;;;;7.55;4.28;;;22.30;34.60;;;;;;20359;6742;308206;-74
2023/10/08 08:04:11;;;;;;;7.13;4.20;;;22.60;34.50;;;;;;20423;6771;277888;-74
2023/10/08 08:06:49;;;;;;;4.93;3.50;;;22.50;34.40;;;;;;20342;6804;299535;-74
2023/10/08 08:09:23;;;;;;;7.33;3.90;;;22.60;34.10;;;;;;20576;6786;118539;-74
2023/10/08 08:11:58;;;;;;;6.30;4.00;;;22.40;34.60;;;;;;20471;6764;283272;-74
2023/10/08 08:14:38;;;;;;;6.60;3.85;;;22.40;34.60;;;;;;20335;6794;296423;-74
2023/10/08 08:17:16;;;;;;;5.77;3.30;;;22.50;34.30;;;;;;20673;6772;117276;-74
2023/10/08 08:19:51;;;;;;;7.30;3.67;;;22.30;34.40;;;;;;20581;6794;117700;-74
2023/10/08 08:22:40;;;;;;;3.47;3.17;;;22.00;34.90;;;;;;20607;6779;117894;-75
2023/10/08 09:40:25;;;;;;;5.00;3.47;;;26.30;31.80;;;;;;21054;6502;76256;-76
2023/10/08 09:42:51;;;;;;;6.93;3.70;;;26.00;31.70;;;;;;20435;6837;340619;-75
2023/10/08 09:45:16;;;;;;;4.53;3.50;;;26.00;31.70;;;;;;20679;6820;120722;-74
2023/10/08 09:47:45;;;;;;;6.85;3.92;;;26.00;32.10;;;;;;20471;6813;335871;-74
2023/10/08 09:50:12;;;;;;;5.40;3.60;;;26.00;32.00;;;;;;20679;6813;117028;-76
2023/10/08 09:52:39;;;;;;;6.90;3.93;;;26.10;32.30;;;;;;20530;6805;277183;-76
2023/10/08 09:55:10;;;;;;;6.00;3.53;;;26.40;31.40;;;;;;20672;6819;144210;-75
2023/10/08 09:57:34;;;;;;;7.37;3.90;;;26.60;31.50;;;;;;20694;6823;117255;-75
2023/10/08 10:00:00;;;;;;;4.73;3.30;;;26.60;31.70;;;;;;20685;6823;119693;-75
2023/10/08 10:02:27;;;;;;;5.03;3.40;;;26.70;32.10;;;;;;20681;6823;118532;-76
2023/10/08 10:04:52;;;;;;;7.60;3.73;;;26.80;32.00;;;;;;20718;6806;118753;-75
2023/10/08 10:07:16;;;;;;;8.50;4.07;;;26.80;31.70;;;;;;20421;6819;309226;-76
2023/10/08 10:09:42;;;;;;;11.17;3.90;;;27.10;30.50;;;;;;20700;6819;117480;-76
2023/10/08 10:12:09;;;;;;;7.47;3.57;;;27.30;30.70;;;;;;20678;6819;119956;-78
2023/10/08 10:14:42;;;;;;;5.67;4.30;;;27.30;30.40;;;;;;20459;6832;280802;-74
2023/10/08 10:17:25;;;;;;;4.60;3.73;;;27.30;30.40;;;;;;20618;6832;122139;-76
2023/10/08 10:19:54;;;;;;;8.97;3.70;;;27.30;30.60;;;;;;20656;6838;117018;-75
2023/10/08 10:22:27;;;;;;;7.35;4.25;;;27.00;30.40;;;;;;20439;6838;341580;-75
2023/10/08 10:24:52;;;;;;;7.90;4.30;;;27.10;29.90;;;;;;20440;6838;307796;-74
2023/10/08 10:27:20;;;;;;;6.57;4.18;;;27.30;30.60;;;;;;20475;6810;280437;-78
2023/10/08 10:29:47;;;;;;;7.87;4.32;;;27.50;30.40;;;;;;20527;6810;336097;-75
2023/10/08 10:32:11;;;;;;;10.13;3.70;;;27.70;29.80;;;;;;20665;6834;116924;-79
2023/10/08 10:34:36;;;;;;;4.73;4.07;;;27.60;29.80;;;;;;20654;6832;117807;-75
2023/10/08 10:37:10;;;;;;;11.93;3.75;;;27.30;30.00;;;;;;20674;6832;121894;-78
2023/10/08 10:39:39;;;;;;;9.30;3.97;;;27.10;30.40;;;;;;20447;6832;278977;-77
2023/10/08 10:42:06;;;;;;;11.57;4.37;;;27.10;29.90;;;;;;20638;6834;117166;-80
2023/10/08 10:44:32;;;;;;;8.20;4.20;;;27.10;30.00;;;;;;20484;6824;307653;-76
2023/10/08 10:49:53;;;;;;;12.07;4.30;;;27.50;30.00;;;;;;20439;6837;346600;-77
2023/10/08 10:52:32;;;;;;;7.97;4.10;;;27.80;29.70;;;;;;20643;6838;117764;-75
2023/10/08 10:57:42;;;;;;;10.57;4.37;;;27.70;29.90;;;;;;20377;6827;321229;-77
2023/10/08 11:00:47;;;;;;;8.63;4.07;;;27.90;29.70;;;;;;20650;6810;122282;-78
2023/10/08 11:02:59;;;;;;;7.90;4.10;;;28.10;29.60;;;;;;20269;6838;314606;-77
2023/10/08 11:05:28;;;;;;;7.22;4.30;;;28.30;29.70;;;;;;20453;6813;306480;-76
2023/10/08 11:07:48;;;;;;;8.40;4.40;;;28.70;29.20;;;;;;20513;6813;286196;-76
2023/10/08 11:10:15;;;;;;;9.80;4.60;;;29.00;28.70;;;;;;20521;6813;307026;-76
2023/10/08 11:12:46;;;;;;;7.97;4.43;;;29.30;28.10;;;;;;20498;6813;277412;-79
2023/10/08 11:15:14;;;;;;;9.02;4.80;;;29.40;27.90;;;;;;20442;6813;306085;-77
2023/10/08 11:17:34;;;;;;;8.33;3.67;;;29.60;27.90;;;;;;20665;6826;117757;-77
2023/10/08 11:20:06;;;;;;;5.13;3.77;;;29.60;28.10;;;;;;20705;6817;117727;-76
2023/10/08 11:22:29;;;;;;;7.73;4.30;;;29.30;28.30;;;;;;20702;6817;117018;-77
2023/10/08 11:24:54;;;;;;;10.83;4.50;;;29.00;28.30;;;;;;20472;6803;278420;-81
2023/10/08 11:27:37;;;;;;;9.27;4.53;;;29.00;27.90;;;;;;20565;6803;306815;-80
2023/10/08 11:29:58;;;;;;;9.77;4.10;;;29.30;28.20;;;;;;20730;6803;117887;-82
2023/10/08 11:32:27;;;;;;;10.57;4.55;;;29.20;27.60;;;;;;20524;6812;283051;-81
2023/10/08 11:34:59;;;;;;;8.63;4.28;;;29.20;27.80;;;;;;20501;6812;317084;-78
2023/10/08 11:37:29;;;;;;;8.63;4.00;;;29.30;27.90;;;;;;20714;6812;117225;-79
2023/10/08 11:39:58;;;;;;;13.30;4.53;;;29.10;28.00;;;;;;20512;6812;309511;-79
2023/10/08 11:42:43;;;;;;;6.33;3.73;;;29.10;28.80;;;;;;20693;6810;117736;-78
2023/10/08 11:44:52;;;;;;;7.30;3.80;;;28.90;28.70;;;;;;20578;6810;117129;-78
2023/10/08 11:47:21;;;;;;;8.20;3.80;;;28.70;28.80;;;;;;20698;6806;117294;-78
2023/10/08 11:50:09;;;;;;;10.60;4.50;;;28.50;29.10;;;;;;20516;6806;313716;-78
2023/10/08 11:52:21;;;;;;;6.73;3.90;;;28.50;29.30;;;;;;20652;6820;117307;-80
2023/10/08 11:54:52;;;;;;;8.20;4.40;;;28.60;29.50;;;;;;20537;6820;282788;-82
2023/10/08 11:57:21;;;;;;;7.33;4.53;;;28.60;29.40;;;;;;20482;6820;317191;-81
2023/10/08 11:59:41;;;;;;;7.50;3.60;;;28.80;29.20;;;;;;20711;6820;117745;-83
2023/10/08 12:02:06;;;;;;;8.93;4.43;;;28.70;29.20;;;;;;20735;6818;117053;-81
2023/10/08 12:04:31;;;;;;;7.28;3.90;;;28.50;29.50;;;;;;20517;6819;307026;-80
2023/10/08 12:07:02;;;;;;;8.07;4.03;;;28.40;29.70;;;;;;20734;6810;117937;-81
2023/10/08 12:09:27;;;;;;;7.50;3.70;;;28.40;29.70;;;;;;20729;6815;123540;-81
2023/10/08 12:11:50;;;;;;;8.67;3.80;;;28.20;29.90;;;;;;20728;6815;121555;-81
2023/10/08 12:14:15;;;;;;;7.17;4.30;;;28.10;30.10;;;;;;20533;6815;307447;-82
2023/10/08 12:16:41;;;;;;;8.90;4.43;;;28.10;30.10;;;;;;20522;6815;317737;-78
2023/10/08 12:19:15;;;;;;;8.70;3.90;;;28.30;30.00;;;;;;20716;6815;121724;-79
2023/10/08 12:21:32;;;;;;;6.87;4.40;;;28.30;30.00;;;;;;20493;6816;279222;-79
2023/10/08 12:23:58;;;;;;;6.93;4.17;;;28.30;30.40;;;;;;20697;6816;118327;-80
2023/10/08 12:26:23;;;;;;;5.75;3.78;;;28.20;30.40;;;;;;20694;6816;117315;-79
2023/10/08 12:28:49;;;;;;;8.32;4.35;;;28.00;30.20;;;;;;20515;6816;307851;-79
2023/10/08 12:31:15;;;;;;;5.60;3.50;;;28.10;30.50;;;;;;20713;6816;117467;-81
2023/10/08 12:33:43;;;;;;;7.00;4.00;;;28.10;30.30;;;;;;20678;6824;124065;-79
2023/10/08 12:36:10;;;;;;;7.90;4.23;;;28.00;30.40;;;;;;20483;6824;290881;-80
2023/10/08 12:38:36;;;;;;;6.43;3.93;;;28.10;30.50;;;;;;20694;6824;117212;-78
2023/10/08 12:41:11;;;;;;;8.20;4.30;;;28.10;30.30;;;;;;20671;6824;117590;-80
2023/10/08 12:43:27;;;;;;;7.12;4.20;;;28.00;30.30;;;;;;20438;6828;311889;-80
2023/10/08 12:45:53;;;;;;;10.77;4.43;;;28.00;31.10;;;;;;20693;6824;117960;-80
2023/10/08 12:48:22;;;;;;;9.50;3.80;;;28.10;30.70;;;;;;20697;6824;117875;-80
2023/10/08 12:50:53;;;;;;;6.17;3.83;;;28.00;30.60;;;;;;20488;6824;280061;-79
2023/10/08 12:53:15;;;;;;;8.30;4.10;;;28.00;30.60;;;;;;20463;6822;305593;-80
2023/10/08 12:55:39;;;;;;;8.82;4.10;;;28.20;30.10;;;;;;20508;6824;338476;-85
2023/10/08 12:58:09;;;;;;;10.27;4.10;;;28.30;30.20;;;;;;20706;6824;123363;-78
2023/10/08 13:00:31;;;;;;;10.73;4.27;;;28.20;30.10;;;;;;20687;6822;120203;-81
2023/10/08 13:02:57;;;;;;;7.87;3.87;;;27.90;30.30;;;;;;20689;6824;118865;-85
2023/10/08 13:05:26;;;;;;;8.73;4.47;;;27.60;30.60;;;;;;20500;6822;279254;-78
2023/10/08 13:07:48;;;;;;;9.20;4.35;;;27.60;31.60;;;;;;20496;6824;280467;-79
2023/10/08 13:10:14;;;;;;;5.40;4.70;;;27.80;32.10;;;;;;20709;6824;117149;-82
2023/10/08 13:12:41;;;;;;;8.87;5.20;;;27.90;31.80;;;;;;20486;6822;308621;-78
2023/10/08 13:15:07;;;;;;;7.20;4.53;;;27.90;31.90;;;;;;20466;6823;307043;-78
2023/10/08 13:17:32;;;;;;;6.67;5.03;;;28.10;31.20;;;;;;20698;6823;118382;-80
2023/10/08 13:19:58;;;;;;;12.03;4.80;;;28.00;31.10;;;;;;20676;6823;121975;-82
2023/10/08 13:22:24;;;;;;;6.87;4.37;;;27.70;31.90;;;;;;20501;6823;306561;-79
2023/10/08 13:24:50;;;;;;;8.23;4.57;;;27.70;31.50;;;;;;20494;6824;277978;-82
2023/10/08 13:27:16;;;;;;;9.23;4.37;;;27.80;31.50;;;;;;20484;6824;308128;-79
2023/10/08 13:29:43;;;;;;;8.63;4.60;;;28.00;31.20;;;;;;20469;6824;305502;-78
2023/10/08 13:32:07;;;;;;;10.57;3.97;;;28.20;30.60;;;;;;20679;6824;117316;-79
2023/10/08 13:34:32;;;;;;;10.95;4.68;;;28.10;30.60;;;;;;20433;6824;277579;-82
2023/10/08 13:36:58;;;;;;;8.27;3.90;;;28.10;30.30;;;;;;20689;6824;133768;-79
2023/10/08 13:39:24;;;;;;;8.57;4.50;;;28.00;30.30;;;;;;20726;6824;121546;-79
2023/10/08 13:41:52;;;;;;;10.63;4.45;;;27.80;30.50;;;;;;20516;6824;315792;-82
2023/10/08 13:44:18;;;;;;;10.83;4.97;;;27.80;30.90;;;;;;20738;6824;116740;-79
2023/10/08 13:46:49;;;;;;;5.30;4.20;;;27.70;30.90;;;;;;20734;6824;118537;-79
2023/10/08 13:49:16;;;;;;;12.65;4.47;;;27.60;30.90;;;;;;20484;6824;339081;-79
2023/10/08 13:51:40;;;;;;;8.30;3.97;;;27.70;31.80;;;;;;20663;6824;118697;-79
2023/10/08 13:54:09;;;;;;;15.73;4.65;;;27.70;31.70;;;;;;20450;6824;331700;-79
2023/10/08 13:56:37;;;;;;;7.07;4.57;;;27.80;31.30;;;;;;20705;6824;117126;-78
2023/10/08 13:59:12;;;;;;;9.23;4.40;;;27.70;30.60;;;;;;20471;6824;285703;-80
2023/10/08 14:01:40;;;;;;;11.43;4.80;;;28.00;30.80;;;;;;20497;6824;324760;-80
2023/10/08 14:04:06;;;;;;;12.53;4.27;;;28.00;30.80;;;;;;20701;6824;121722;-78
2023/10/08 14:06:34;;;;;;;11.30;4.73;;;28.00;30.80;;;;;;20531;6824;319291;-84
2023/10/08 14:09:00;;;;;;;14.23;4.00;;;27.90;30.70;;;;;;20699;6824;129601;-81
2023/10/08 14:11:30;;;;;;;9.83;5.00;;;27.90;30.70;;;;;;20493;6824;307853;-80
2023/10/08 14:13:52;;;;;;;10.00;4.60;;;27.90;31.50;;;;;;20490;6824;313771;-81
2023/10/08 14:16:28;;;;;;;8.87;4.30;;;28.10;30.80;;;;;;20505;6824;297383;-81
2023/10/08 14:18:53;;;;;;;9.20;4.60;;;28.20;30.50;;;;;;20500;6824;316469;-81
2023/10/08 14:21:17;;;;;;;7.77;4.13;;;28.30;30.20;;;;;;20682;6824;124865;-81
2023/10/08 14:23:41;;;;;;;7.90;3.90;;;28.20;30.40;;;;;;20713;6824;123914;-80
2023/10/08 14:26:10;;;;;;;10.13;4.30;;;28.00;30.70;;;;;;20726;6822;116959;-79
2023/10/08 14:28:51;;;;;;;12.53;5.20;;;27.70;31.30;;;;;;20488;6823;307560;-76
2023/10/08 14:31:08;;;;;;;9.90;4.60;;;27.70;31.30;;;;;;20455;6823;307077;-76
2023/10/08 14:33:43;;;;;;;10.93;4.60;;;27.90;31.10;;;;;;20486;6823;307886;-76
2023/10/08 14:44:15;;;;;;;12.43;4.80;;;27.70;29.70;;;;;;20489;6824;314704;-74
2023/10/08 14:46:41;;;;;;;11.43;5.20;;;27.70;29.50;;;;;;20696;6824;118774;-77
2023/10/08 14:49:09;;;;;;;8.90;4.20;;;27.70;29.80;;;;;;20681;6824;118061;-74
2023/10/08 14:51:32;;;;;;;10.67;3.67;;;27.40;29.90;;;;;;20680;6824;117460;-77
2023/10/08 14:53:58;;;;;;;10.13;4.30;;;27.20;30.00;;;;;;20699;6824;117238;-75
2023/10/08 14:56:25;;;;;;;10.35;4.03;;;27.00;30.00;;;;;;20694;6824;117843;-76
2023/10/08 14:58:49;;;;;;;12.73;4.23;;;26.80;30.10;;;;;;20679;6824;120244;-75
2023/10/08 15:01:16;;;;;;;11.12;4.68;;;26.90;29.80;;;;;;20458;6824;336915;-74
2023/10/08 15:03:41;;;;;;;10.17;3.87;;;26.90;29.80;;;;;;20683;6824;121103;-76
2023/10/08 15:06:07;;;;;;;12.63;4.70;;;27.00;29.80;;;;;;20474;6824;335593;-77